Airfield :
LOGIN :

Register | Disclaimer

   EN    FR    IT 

 










Legend :    VFR   Marginal VFR   IFR   Intensive IFR   Very Intensive IFR
Visi :
Ceiling :
>= 8 km
>= 3000ft
5 to 8 km
1000 to 3000 ft
1500m to 5 km
500 to 1000 ft
800 to 1500m
200 to 500 ft
< 800m
< 200 ft
Symbols :   Thunderstorms  Fog  Heavy snow  Heavy precipitations  Wind > 20 kt
SIGMETs :     Misc.  Thunderstorms  Icing  Turbulence  Mountain Waves  Volcanic Ashes






- Airport Elevation : 392 ft
- IATA code : CDG


LFPG - Paris-Aeroport Charles De Gaulle

CURRENT METAR :
  • 200230Z 22011KT 9999 FEW017 BKN046 08/06 Q1020 TEMPO BKN012

EXPIRED METARs :
  • 200200Z 23011KT 9999 FEW016 BKN048 08/06 Q1021 TEMPO BKN012
  • 200130Z 22010KT 9999 FEW016 BKN050 BKN240 08/05 Q1021 TEMPO BKN012
  • 200100Z 22012KT 9999 FEW014 SCT053 BKN240 08/05 Q1021 TEMPO BKN012
  • 200030Z 22009KT 9999 SCT014 BKN260 08/06 Q1022 TEMPO BKN012
  • 200000Z 22009KT 9999 FEW011 BKN260 08/06 Q1022 TEMPO BKN012

TAF TAF LFPG
Valid from the 20 at 00:00 until the 21 at 06:00 UTC


192300Z 2000/2106 22012KT 9999 FEW012 BKN060 TX12/2015Z TN01/2106Z
PROB40
TEMPO 2000/2011 BKN012
PROB30
TEMPO 2002/2008 BKN009
BECMG 2008/2010 20015G25KT
BECMG 2014/2016 22020G35KT
TEMPO 2017/2019 30025G45KT 2000 +RA BKN012TCU BKN014
BECMG 2017/2020 28015G25KT
BECMG 2021/2023 26010KT
BECMG 2104/2106 19005KT
ATIS : +33 1 48 62 10 92



MET'MAP, your aeronautical weather chart ! - Copyright ORBIFLY December 2007 - Disclaimer

ORBIFLY MET'MAP TEAM :

Programming & Development : Alexandra Zaïnal
Concept & original design : Baudouin d'Aumeries
Assistance for programming : Marc-Olivier Méhu
Technical & hardware support : Manuel Goepfert

Contact : metmap@orbifly.com




SOURCES & CREDITS :

   NOAA